Terminal Aerodrome Forecast
Issued by NWS Flagstaff, AZ

Home | Current Version | Previous Version | Text Only | Print | Product List | Glossary On
Versions: 1 2 3 4 5 6 7 8 9 10 11 12 13 14 15 16 17 18 19
000
FTUS45 KFGZ 261100
TAFINW
TAF
KINW 261140Z 2612/2712 VRB06KT P6SM BKN140
     FM262000 31009KT P6SM SCT100 SCT140
     FM270400 VRB06KT P6SM FEW100 SCT200=

USA.gov is the U.S. government's official web portal to all federal, state and local government web resources and services.